Bungay, United Kingdom
Current Conditions -  °F | °C
As of 2:20 PM on Monday 20 Oct 2014 (Local Time) from EGSD Reporting Station
Scattered Clouds Scattered Clouds  
Wind Chill: 61°   Ceiling: Unl
Heat Index: 61°   Visibility: 6mi
Dew Point: 54°   Wind: 16mph
Humidity: 77%   Direction: 240°WSW
Pressure: 29.91"   Gusts: NA
Location:  52.45°N, 1.44°E
Report Text: EGSD 201320Z 24014KT 9999 FEW015 SCT020 16/12 Q1013
Loading
Personal Weather Stations






























Interactive Weather Map
Tropical Storm Tracking
New forecast layout! Learn more

10-Day Weather Forecast

Advertisements
Track Severe Weather on mobile